createdAt,value
2018-09-03T00:04:16.022Z,74.95
2018-09-03T00:06:44.525Z,75.36
2018-09-03T00:09:12.928Z,75.04
2018-09-03T00:11:41.361Z,74.76
2018-09-03T00:14:09.785Z,75.09
2018-09-03T00:16:38.240Z,74.76
2018-09-03T00:19:07.371Z,75.23
2018-09-03T00:21:35.796Z,75.18
2018-09-03T00:24:04.326Z,75.14
2018-09-03T00:26:32.735Z,74.95
2018-09-03T00:29:01.164Z,75.06
2018-09-03T00:31:34.969Z,75.63
2018-09-03T00:34:08.661Z,75.63
2018-09-03T00:36:42.396Z,75.11
2018-09-03T00:39:16.252Z,75.23
2018-09-03T00:41:49.980Z,74.90
2018-09-03T00:44:23.558Z,75.26
2018-09-03T00:46:56.711Z,75.49
2018-09-03T00:49:25.228Z,75.25
2018-09-03T00:51:53.699Z,74.79
2018-09-03T00:54:22.438Z,74.88
2018-09-03T00:56:50.947Z,74.95
2018-09-03T00:59:19.531Z,75.86
2018-09-03T01:01:48.023Z,75.16
2018-09-03T01:04:16.828Z,75.31
2018-09-03T01:07:01.091Z,75.16
2018-09-03T01:09:29.557Z,74.80
2018-09-03T01:11:57.974Z,74.57
2018-09-03T01:14:26.489Z,74.47
2018-09-03T01:16:54.911Z,74.40
2018-09-03T01:19:23.348Z,75.05
2018-09-03T01:21:51.741Z,75.44
2018-09-03T01:24:20.216Z,74.88
2018-09-03T01:26:48.663Z,75.28
2018-09-03T01:29:17.124Z,74.75
2018-09-03T01:31:45.557Z,74.93
2018-09-03T01:34:13.950Z,75.64
2018-09-03T01:36:42.905Z,74.88
2018-09-03T01:39:11.309Z,75.52
2018-09-03T01:41:39.741Z,75.30
2018-09-03T01:44:08.253Z,74.68
2018-09-03T01:46:36.669Z,75.10
2018-09-03T01:49:05.161Z,74.93
2018-09-03T01:51:33.596Z,74.59
2018-09-03T01:54:02.006Z,74.80
2018-09-03T01:56:30.445Z,74.88
2018-09-03T01:58:58.848Z,75.49
2018-09-03T02:01:27.301Z,75.36
2018-09-03T02:03:55.825Z,75.62
2018-09-03T02:06:24.273Z,75.34
2018-09-03T02:08:52.689Z,75.40
2018-09-03T02:11:21.133Z,74.86
2018-09-03T02:13:49.567Z,74.65
2018-09-03T02:16:24.008Z,75.53
2018-09-03T02:18:52.473Z,74.48
2018-09-03T02:21:20.949Z,74.55
2018-09-03T02:23:49.465Z,74.40
2018-09-03T02:29:20.446Z,73.86
2018-09-03T02:31:48.878Z,74.79
2018-09-03T02:34:17.335Z,75.11
2018-09-03T02:36:45.815Z,75.54
2018-09-03T02:39:14.309Z,74.81
2018-09-03T02:41:42.722Z,74.77
2018-09-03T02:44:11.208Z,75.46
2018-09-03T02:49:42.355Z,75.03
2018-09-03T02:52:10.766Z,74.89
2018-09-03T02:54:39.205Z,74.87
2018-09-03T02:57:07.635Z,74.54
2018-09-03T02:59:36.161Z,73.19
2018-09-03T03:02:04.636Z,74.20
2018-09-03T03:04:33.146Z,73.71
2018-09-03T03:07:01.650Z,74.46
2018-09-03T03:09:30.085Z,74.28
2018-09-03T03:11:58.550Z,74.23
2018-09-03T03:14:26.981Z,74.12
2018-09-03T03:16:55.446Z,74.50
2018-09-03T03:19:23.897Z,74.07
2018-09-03T03:21:52.305Z,74.74
2018-09-03T03:24:20.914Z,74.37
2018-09-03T03:26:49.356Z,75.68
2018-09-03T03:29:17.756Z,75.80
2018-09-03T03:31:46.201Z,75.67
2018-09-03T03:34:14.642Z,75.89
2018-09-03T03:36:43.106Z,75.36
2018-09-03T03:39:11.543Z,75.65
2018-09-03T03:41:39.986Z,74.41
2018-09-03T03:44:08.485Z,75.08
2018-09-03T03:46:36.945Z,74.27
2018-09-03T03:49:05.492Z,75.44
2018-09-03T03:51:33.999Z,75.92
2018-09-03T03:54:02.421Z,74.99
2018-09-03T03:56:30.926Z,75.20
2018-09-03T03:58:59.369Z,75.43
2018-09-03T04:01:27.809Z,75.29
2018-09-03T04:03:56.241Z,75.30
2018-09-03T04:06:24.713Z,75.16
2018-09-03T04:08:53.140Z,75.49
2018-09-03T04:11:21.532Z,75.04
2018-09-03T04:13:49.981Z,75.05
2018-09-03T04:16:18.446Z,74.91
2018-09-03T04:18:46.885Z,74.44
2018-09-03T04:21:15.281Z,75.31
2018-09-03T04:23:43.755Z,75.29
2018-09-03T04:26:12.153Z,74.30
2018-09-03T04:28:40.672Z,75.02
2018-09-03T04:31:09.077Z,75.45
2018-09-03T04:33:37.505Z,75.12
2018-09-03T04:36:05.968Z,75.55
2018-09-03T04:38:34.442Z,75.26
2018-09-03T04:41:02.885Z,74.56
2018-09-03T04:43:31.357Z,74.95
2018-09-03T04:46:00.129Z,74.83
2018-09-03T04:48:28.581Z,74.54
2018-09-03T04:50:57.037Z,74.75
2018-09-03T04:53:25.489Z,75.07
2018-09-03T04:55:53.919Z,74.72
2018-09-03T04:58:22.364Z,74.18
2018-09-03T05:00:50.800Z,74.94
2018-09-03T05:03:19.246Z,75.63
2018-09-03T05:05:47.786Z,74.36
2018-09-03T05:08:18.050Z,74.78
2018-09-03T05:10:46.541Z,74.76
2018-09-03T05:13:14.993Z,75.73
2018-09-03T05:15:43.437Z,74.92
2018-09-03T05:18:11.921Z,75.44
2018-09-03T05:20:40.373Z,74.57
2018-09-03T05:23:08.847Z,74.99
2018-09-03T05:25:37.261Z,74.25
2018-09-03T05:28:05.741Z,74.69
2018-09-03T05:30:34.184Z,74.59
2018-09-03T05:33:02.676Z,75.71
2018-09-03T05:35:31.081Z,74.58
2018-09-03T05:37:59.537Z,75.73
2018-09-03T05:40:27.953Z,74.94
2018-09-03T05:42:56.423Z,74.20
2018-09-03T05:45:24.884Z,74.63
2018-09-03T05:47:53.338Z,75.10
2018-09-03T05:50:21.810Z,74.59
2018-09-03T05:52:50.229Z,75.06
2018-09-03T05:55:18.752Z,75.21
2018-09-03T05:57:47.246Z,75.45
2018-09-03T06:00:15.789Z,75.75
2018-09-03T06:02:44.446Z,75.59
2018-09-03T06:05:12.999Z,76.29
2018-09-03T06:07:42.033Z,75.31
2018-09-03T06:10:10.656Z,76.20
2018-09-03T06:12:39.631Z,75.35
2018-09-03T06:15:08.351Z,75.98
2018-09-03T06:17:36.823Z,74.60
2018-09-03T06:20:05.510Z,74.27
2018-09-03T06:22:34.131Z,74.17
2018-09-03T06:25:02.649Z,73.67
2018-09-03T06:27:31.220Z,72.87
2018-09-03T06:29:59.775Z,72.37
2018-09-03T06:32:28.328Z,72.58
2018-09-03T06:34:56.852Z,72.88
2018-09-03T06:37:25.400Z,72.29
2018-09-03T06:39:53.939Z,72.08
2018-09-03T06:42:22.525Z,73.05
2018-09-03T06:44:51.113Z,73.22
2018-09-03T06:47:19.749Z,73.07
2018-09-03T06:49:48.311Z,73.10
2018-09-03T06:52:16.854Z,72.55
2018-09-03T06:54:45.409Z,72.99
2018-09-03T06:57:14.143Z,71.82
2018-09-03T06:59:42.748Z,69.83
2018-09-03T07:02:11.277Z,69.60
2018-09-03T07:04:40.427Z,68.64
2018-09-03T07:10:01.152Z,69.04
2018-09-03T07:12:29.618Z,69.26
2018-09-03T07:14:58.048Z,69.75
2018-09-03T07:17:26.508Z,68.60
2018-09-03T07:19:54.926Z,67.69
2018-09-03T07:22:23.395Z,66.80
2018-09-03T07:24:51.801Z,66.88
2018-09-03T07:27:20.265Z,66.24
2018-09-03T07:29:48.762Z,65.44
2018-09-03T07:32:17.174Z,65.88
2018-09-03T07:34:45.782Z,65.11
2018-09-03T07:37:14.209Z,64.81
2018-09-03T07:39:45.826Z,64.65
2018-09-03T07:42:14.210Z,64.29
2018-09-03T07:44:42.669Z,63.58
2018-09-03T07:47:11.064Z,63.33
2018-09-03T07:49:39.502Z,63.13
2018-09-03T07:52:07.926Z,62.85
2018-09-03T07:54:36.386Z,62.62
2018-09-03T07:57:04.830Z,62.11
2018-09-03T07:59:33.265Z,62.11
2018-09-03T08:02:02.097Z,61.81
2018-09-03T08:04:30.543Z,61.41
2018-09-03T08:06:59.053Z,60.53
2018-09-03T08:09:27.530Z,61.58
2018-09-03T08:11:56.466Z,61.64
2018-09-03T08:14:24.906Z,62.00
2018-09-03T08:16:53.373Z,61.99
2018-09-03T08:19:21.835Z,62.57
2018-09-03T08:21:50.345Z,61.46
2018-09-03T08:24:18.772Z,61.12
2018-09-03T08:26:47.254Z,61.54
2018-09-03T08:29:15.688Z,62.04
2018-09-03T08:31:44.191Z,62.09
2018-09-03T08:34:12.664Z,62.06
2018-09-03T08:36:41.225Z,62.37
2018-09-03T08:39:09.648Z,62.38
2018-09-03T08:41:38.098Z,63.89
2018-09-03T08:44:06.549Z,62.65
2018-09-03T08:46:35.038Z,62.69
2018-09-03T08:49:03.469Z,62.29
2018-09-03T08:51:31.989Z,61.40
2018-09-03T08:54:00.413Z,60.04
2018-09-03T08:56:28.895Z,60.31
2018-09-03T08:58:57.357Z,61.52
2018-09-03T09:01:25.825Z,61.53
2018-09-03T09:03:54.216Z,62.04
2018-09-03T09:06:22.793Z,61.83
2018-09-03T09:08:51.262Z,61.71
2018-09-03T09:11:19.784Z,61.57
2018-09-03T09:13:48.227Z,61.61
2018-09-03T09:16:16.684Z,61.32
2018-09-03T09:18:45.123Z,62.17
2018-09-03T09:21:13.510Z,62.84
2018-09-03T09:23:42.438Z,61.21
2018-09-03T09:26:10.912Z,60.81
2018-09-03T09:28:39.386Z,60.47
2018-09-03T09:31:07.861Z,60.49
2018-09-03T09:33:36.374Z,60.01
2018-09-03T09:36:04.824Z,60.57
2018-09-03T09:38:33.314Z,60.95
2018-09-03T09:41:01.796Z,60.17
2018-09-03T09:43:30.391Z,59.59
2018-09-03T09:45:58.857Z,59.06
2018-09-03T09:48:27.287Z,59.13
2018-09-03T09:50:55.808Z,58.99
2018-09-03T09:53:24.311Z,58.83
2018-09-03T09:55:52.883Z,58.87
2018-09-03T09:58:21.360Z,58.90
2018-09-03T10:00:55.046Z,59.27
2018-09-03T10:03:23.480Z,59.72
2018-09-03T10:05:51.914Z,60.06
2018-09-03T10:08:20.361Z,60.29
2018-09-03T10:10:48.754Z,59.85
2018-09-03T10:13:17.156Z,58.95
2018-09-03T10:15:45.638Z,58.76
2018-09-03T10:18:14.073Z,58.69
2018-09-03T10:20:42.561Z,58.99
2018-09-03T10:23:10.957Z,58.19
2018-09-03T10:25:39.417Z,58.10
2018-09-03T10:28:07.835Z,58.67
2018-09-03T10:30:36.611Z,58.66
2018-09-03T10:33:05.024Z,57.58
2018-09-03T10:35:33.468Z,56.22
2018-09-03T10:38:01.889Z,55.17
2018-09-03T10:40:30.375Z,55.29
2018-09-03T10:42:58.842Z,57.18
2018-09-03T10:45:27.374Z,56.97
2018-09-03T10:47:55.769Z,56.62
2018-09-03T10:50:24.265Z,56.99
2018-09-03T10:52:52.665Z,56.97
2018-09-03T10:55:21.063Z,55.39
2018-09-03T10:57:50.263Z,54.44
2018-09-03T11:00:18.660Z,56.50
2018-09-03T11:02:47.093Z,55.08
2018-09-03T11:05:15.596Z,54.94
2018-09-03T11:07:44.037Z,54.04
2018-09-03T11:10:12.458Z,53.59
2018-09-03T11:12:40.906Z,53.75
2018-09-03T11:15:09.395Z,54.16
2018-09-03T11:17:37.899Z,53.62
2018-09-03T11:20:08.731Z,52.98
2018-09-03T11:22:37.170Z,51.63
2018-09-03T11:25:05.694Z,51.68
2018-09-03T11:27:34.216Z,52.07
2018-09-03T11:30:02.668Z,52.98
2018-09-03T11:32:31.101Z,52.10
2018-09-03T11:34:59.525Z,52.62
2018-09-03T11:37:28.029Z,52.54
2018-09-03T11:39:56.474Z,51.39
2018-09-03T11:42:24.925Z,51.33
2018-09-03T11:44:53.386Z,50.91
2018-09-03T11:47:21.797Z,51.47
2018-09-03T11:49:50.295Z,52.23
2018-09-03T11:52:18.690Z,52.69
2018-09-03T11:54:48.248Z,53.35
2018-09-03T11:57:16.886Z,53.83
2018-09-03T11:59:45.317Z,54.24
2018-09-03T12:02:13.744Z,53.23
2018-09-03T12:04:42.243Z,53.33
2018-09-03T12:07:10.687Z,52.86
2018-09-03T12:09:39.136Z,52.76
2018-09-03T12:12:07.350Z,53.80
2018-09-03T12:14:39.530Z,53.82
2018-09-03T12:17:08.720Z,53.46
2018-09-03T12:19:37.198Z,53.42
2018-09-03T12:22:05.817Z,53.81
2018-09-03T12:24:34.257Z,54.37
2018-09-03T12:27:02.846Z,54.30
2018-09-03T12:29:31.286Z,54.56
2018-09-03T12:31:59.733Z,54.93
2018-09-03T12:34:28.189Z,54.93
2018-09-03T12:36:57.549Z,54.45
2018-09-03T12:39:26.030Z,55.23
2018-09-03T12:41:54.474Z,54.90
2018-09-03T12:44:22.913Z,55.22
2018-09-03T12:46:51.402Z,55.08
2018-09-03T12:49:19.820Z,55.38
2018-09-03T12:51:48.267Z,55.37
2018-09-03T12:54:16.662Z,55.92
2018-09-03T12:56:45.082Z,56.00
2018-09-03T12:59:13.490Z,56.52
2018-09-03T13:01:41.945Z,56.39
2018-09-03T13:04:10.358Z,57.00
2018-09-03T13:06:38.793Z,57.06
2018-09-03T13:09:08.045Z,56.91
2018-09-03T13:11:36.493Z,57.59
2018-09-03T13:14:04.937Z,56.99
2018-09-03T13:16:33.369Z,56.82
2018-09-03T13:19:01.795Z,57.49
2018-09-03T13:21:30.241Z,56.57
2018-09-03T13:23:58.789Z,56.94
2018-09-03T13:26:27.317Z,57.27
2018-09-03T13:28:55.712Z,56.06
2018-09-03T13:31:24.141Z,56.23
2018-09-03T13:33:52.601Z,56.07
2018-09-03T13:36:21.068Z,55.09
2018-09-03T13:38:49.469Z,54.98
2018-09-03T13:41:18.267Z,53.42
2018-09-03T13:43:46.754Z,53.37
2018-09-03T13:46:15.175Z,53.23
2018-09-03T13:48:43.667Z,53.51
2018-09-03T13:51:12.069Z,54.20
2018-09-03T13:53:41.240Z,52.20
2018-09-03T13:56:09.727Z,51.78
2018-09-03T13:58:38.277Z,51.44
2018-09-03T14:01:06.721Z,51.34
2018-09-03T14:03:35.444Z,51.68
2018-09-03T14:06:03.894Z,51.67
2018-09-03T14:08:32.393Z,50.40
2018-09-03T14:11:00.787Z,50.14
2018-09-03T14:13:29.827Z,50.89
2018-09-03T14:15:58.221Z,50.65
2018-09-03T14:18:27.012Z,50.28
2018-09-03T14:20:55.458Z,50.68
2018-09-03T14:23:23.889Z,51.13
2018-09-03T14:25:52.284Z,50.01
2018-09-03T14:28:20.745Z,49.77
2018-09-03T14:30:49.133Z,49.97
2018-09-03T14:33:19.502Z,49.27
2018-09-03T14:35:47.910Z,48.88
2018-09-03T14:38:16.285Z,50.12
2018-09-03T14:40:44.771Z,50.17
2018-09-03T14:43:13.236Z,49.41
2018-09-03T14:45:41.637Z,49.26
2018-09-03T14:48:10.166Z,49.36
2018-09-03T14:50:38.595Z,48.67
2018-09-03T14:53:06.997Z,48.37
2018-09-03T14:55:35.456Z,49.26
2018-09-03T14:58:03.829Z,48.65
2018-09-03T15:00:32.254Z,49.89
2018-09-03T15:03:00.661Z,49.26
2018-09-03T15:05:29.069Z,49.70
2018-09-03T15:07:57.457Z,50.57
2018-09-03T15:10:25.922Z,49.55
2018-09-03T15:12:54.314Z,48.38
2018-09-03T15:15:22.737Z,48.76
2018-09-03T15:17:51.165Z,48.53
2018-09-03T15:20:19.662Z,46.30
2018-09-03T15:22:48.052Z,47.75
2018-09-03T15:25:16.480Z,48.03
2018-09-03T15:27:44.878Z,49.34
2018-09-03T15:30:13.261Z,50.66
2018-09-03T15:32:41.689Z,52.06
2018-09-03T15:35:10.076Z,50.68
2018-09-03T15:37:38.511Z,51.50
2018-09-03T15:40:06.916Z,51.29
2018-09-03T15:42:35.353Z,51.51
2018-09-03T15:45:03.810Z,51.72
2018-09-03T15:47:32.293Z,52.41
2018-09-03T15:50:00.733Z,52.19
2018-09-03T15:52:29.174Z,53.35
2018-09-03T15:54:57.572Z,53.57
2018-09-03T15:57:25.990Z,53.48
2018-09-03T15:59:54.371Z,54.24
2018-09-03T16:02:22.791Z,54.90
2018-09-03T16:04:51.229Z,55.29
2018-09-03T16:07:19.696Z,55.06
2018-09-03T16:09:49.033Z,55.54
2018-09-03T16:12:17.468Z,55.47
2018-09-03T16:14:45.859Z,55.86
2018-09-03T16:17:14.232Z,55.78
2018-09-03T16:19:42.685Z,55.34
2018-09-03T16:22:11.585Z,55.97
2018-09-03T16:24:40.082Z,56.76
2018-09-03T16:27:08.465Z,56.26
2018-09-03T16:29:37.342Z,56.61
2018-09-03T16:32:05.758Z,56.27
2018-09-03T16:34:34.177Z,56.66
2018-09-03T16:37:02.536Z,55.83
2018-09-03T16:39:30.963Z,56.35
2018-09-03T16:41:59.411Z,56.60
2018-09-03T16:44:27.854Z,55.99
2018-09-03T16:46:56.250Z,55.52
2018-09-03T16:49:24.658Z,56.49
2018-09-03T16:51:53.068Z,55.53
2018-09-03T16:54:21.541Z,57.10
2018-09-03T16:56:49.949Z,56.57
2018-09-03T16:59:18.378Z,56.73
2018-09-03T17:01:46.802Z,56.66
2018-09-03T17:04:15.329Z,57.19
2018-09-03T17:06:43.813Z,57.61
2018-09-03T17:09:12.285Z,58.64
2018-09-03T17:11:40.715Z,59.13
2018-09-03T17:14:09.117Z,59.49
2018-09-03T17:16:37.528Z,59.59
2018-09-03T17:19:06.293Z,58.84
2018-09-03T17:21:34.699Z,59.12
2018-09-03T17:24:03.152Z,59.92
2018-09-03T17:26:31.573Z,59.99
2018-09-03T17:29:00.006Z,59.76
2018-09-03T17:31:28.457Z,59.54
2018-09-03T17:33:56.837Z,59.38
2018-09-03T17:36:25.248Z,59.94
2018-09-03T17:38:53.697Z,60.35
2018-09-03T17:41:22.122Z,59.69
2018-09-03T17:43:50.581Z,60.38
2018-09-03T17:46:19.077Z,61.01
2018-09-03T17:48:47.545Z,60.70
2018-09-03T17:51:16.003Z,60.46
2018-09-03T17:53:44.398Z,60.38
2018-09-03T17:56:12.820Z,60.00
2018-09-03T17:58:41.325Z,60.22
2018-09-03T18:01:11.166Z,60.37
2018-09-03T18:03:40.152Z,60.79
2018-09-03T18:06:08.809Z,60.54
2018-09-03T18:08:37.337Z,61.53
2018-09-03T18:11:05.785Z,61.57
2018-09-03T18:13:34.289Z,60.93
2018-09-03T18:16:02.684Z,60.56
2018-09-03T18:18:31.213Z,61.49
2018-09-03T18:20:59.768Z,61.10
2018-09-03T18:23:28.184Z,61.31
2018-09-03T18:25:56.606Z,61.79
2018-09-03T18:28:25.039Z,62.85
2018-09-03T18:30:53.453Z,63.21
2018-09-03T18:33:21.897Z,63.11
2018-09-03T18:35:50.341Z,64.15
2018-09-03T18:38:18.763Z,64.55
2018-09-03T18:40:47.281Z,64.68
2018-09-03T18:43:15.708Z,64.10
2018-09-03T18:45:44.153Z,65.00
2018-09-03T18:48:12.593Z,65.58
2018-09-03T18:50:40.981Z,65.97
2018-09-03T18:53:09.479Z,65.91
2018-09-03T18:55:37.873Z,65.87
2018-09-03T18:58:06.355Z,66.41
2018-09-03T19:00:34.826Z,66.43
2018-09-03T19:03:03.281Z,66.53
2018-09-03T19:05:31.740Z,66.79
2018-09-03T19:08:00.190Z,66.81
2018-09-03T19:10:28.612Z,66.64
2018-09-03T19:12:57.025Z,67.29
2018-09-03T19:15:25.460Z,66.65
2018-09-03T19:17:53.855Z,67.30
2018-09-03T19:20:22.285Z,67.93
2018-09-03T19:22:50.713Z,67.90
2018-09-03T19:25:19.169Z,68.75
2018-09-03T19:27:47.573Z,68.97
2018-09-03T19:30:16.003Z,69.21
2018-09-03T19:32:44.421Z,68.94
2018-09-03T19:35:12.867Z,69.84
2018-09-03T19:37:41.272Z,70.03
2018-09-03T19:40:09.761Z,69.39
2018-09-03T19:42:38.157Z,69.92
2018-09-03T19:45:06.677Z,70.05
2018-09-03T19:47:35.096Z,70.43
2018-09-03T19:50:03.543Z,70.24
2018-09-03T19:52:31.968Z,70.55
2018-09-03T19:55:00.402Z,70.53
2018-09-03T19:57:28.849Z,70.75
2018-09-03T19:59:57.271Z,70.73
2018-09-03T20:02:25.932Z,70.78
2018-09-03T20:04:54.353Z,71.50
2018-09-03T20:07:22.925Z,71.06
2018-09-03T20:09:51.337Z,70.94
2018-09-03T20:12:27.173Z,70.79
2018-09-03T20:14:55.618Z,71.12
2018-09-03T20:17:24.593Z,71.19
2018-09-03T20:19:53.661Z,71.05
2018-09-03T20:22:22.151Z,71.05
2018-09-03T20:24:50.694Z,71.43
2018-09-03T20:27:19.162Z,71.45
2018-09-03T20:29:47.589Z,71.41
2018-09-03T20:32:16.050Z,71.45
2018-09-03T20:34:44.453Z,71.56
2018-09-03T20:37:12.912Z,71.94
2018-09-03T20:39:41.322Z,71.60
2018-09-03T20:42:09.917Z,71.80
2018-09-03T20:44:38.386Z,71.51
2018-09-03T20:47:06.859Z,71.54
2018-09-03T20:49:35.234Z,71.56
2018-09-03T20:52:03.693Z,71.92
2018-09-03T20:54:32.197Z,72.03
2018-09-03T20:57:00.570Z,72.04
2018-09-03T20:59:29.077Z,71.87
2018-09-03T21:01:57.401Z,71.86
2018-09-03T21:04:25.810Z,71.96
2018-09-03T21:06:54.225Z,72.17
2018-09-03T21:09:22.699Z,72.68
2018-09-03T21:11:51.078Z,72.34
2018-09-03T21:14:19.589Z,72.43
2018-09-03T21:16:47.925Z,72.44
2018-09-03T21:19:16.380Z,72.78
2018-09-03T21:21:44.845Z,72.49
2018-09-03T21:24:13.270Z,72.97
2018-09-03T21:26:41.683Z,72.83
2018-09-03T21:29:10.125Z,72.72
2018-09-03T21:31:38.530Z,72.68
2018-09-03T21:34:06.954Z,72.92
2018-09-03T21:36:35.327Z,72.86
2018-09-03T21:39:04.531Z,72.85
2018-09-03T21:41:32.877Z,73.09
2018-09-03T21:44:01.300Z,72.74
2018-09-03T21:46:29.740Z,72.97
2018-09-03T21:48:58.135Z,73.62
2018-09-03T21:51:26.577Z,73.44
2018-09-03T21:53:54.977Z,72.89
2018-09-03T21:56:23.427Z,72.95
2018-09-03T21:58:51.824Z,73.22
2018-09-03T22:01:20.305Z,72.67
2018-09-03T22:03:48.673Z,73.27
2018-09-03T22:06:17.110Z,73.17
2018-09-03T22:08:45.548Z,73.16
2018-09-03T22:11:13.981Z,73.34
2018-09-03T22:13:42.353Z,73.25
2018-09-03T22:16:11.278Z,73.14
2018-09-03T22:18:40.578Z,73.43
2018-09-03T22:21:09.256Z,73.08
2018-09-03T22:23:38.448Z,73.79
2018-09-03T22:26:07.195Z,73.68
2018-09-03T22:28:35.837Z,74.05
2018-09-03T22:31:04.708Z,73.76
2018-09-03T22:33:33.116Z,73.74
2018-09-03T22:36:01.502Z,73.44
2018-09-03T22:38:29.921Z,73.36
2018-09-03T22:40:58.325Z,73.25
2018-09-03T22:43:26.740Z,73.24
2018-09-03T22:45:55.173Z,73.06
2018-09-03T22:48:23.582Z,73.27
2018-09-03T22:50:51.986Z,73.04
2018-09-03T22:53:20.441Z,73.00
2018-09-03T22:55:48.857Z,72.82
2018-09-03T22:58:17.365Z,73.31
2018-09-03T23:00:46.029Z,73.24
2018-09-03T23:03:14.452Z,73.48
2018-09-03T23:05:42.887Z,73.37
2018-09-03T23:08:11.284Z,73.85
2018-09-03T23:10:39.716Z,74.01
2018-09-03T23:13:08.149Z,73.84
2018-09-03T23:15:36.612Z,73.40
2018-09-03T23:18:05.512Z,74.01
2018-09-03T23:20:33.875Z,74.08
2018-09-03T23:23:02.302Z,73.93
2018-09-03T23:25:30.733Z,74.07
2018-09-03T23:27:59.137Z,74.34
2018-09-03T23:30:27.581Z,74.66
2018-09-03T23:32:55.969Z,74.65
2018-09-03T23:35:24.429Z,74.58
2018-09-03T23:37:52.811Z,74.43
2018-09-03T23:40:21.258Z,74.46
2018-09-03T23:42:49.644Z,74.83
2018-09-03T23:45:18.153Z,74.60
2018-09-03T23:47:46.613Z,74.72
2018-09-03T23:50:15.093Z,75.16
2018-09-03T23:52:43.478Z,74.52
2018-09-03T23:55:11.934Z,74.40
2018-09-03T23:57:40.408Z,74.46
